Time;durP1;ratioP1;P1;durP2;ratioP2;P2;SDS_P1;SDS_P2;PMS_P1;PMS_P2;Temp;Humidity;BMP_temperature;BMP_pressure;BME280_temperature;BME280_humidity;BME280_pressure;Samples;Min_cycle;Max_cycle;Signal;HPM_P1;HPM_P2
2023/07/03 00:00:36;;;;;;;4.75;2.20;;;;;;;;;;5039152;28;20029;-74
2023/07/03 00:03:02;;;;;;;5.60;3.45;;;;;;;;;;5038507;28;20049;-73
2023/07/03 00:05:30;;;;;;;5.90;2.58;;;;;;;;;;5036204;28;20533;-74
2023/07/03 00:07:56;;;;;;;8.43;2.85;;;;;;;;;;5033172;28;20487;-74
2023/07/03 00:10:22;;;;;;;6.63;2.60;;;;;;;;;;5039048;28;20029;-74
2023/07/03 00:12:48;;;;;;;9.10;2.85;;;;;;;;;;5023860;28;20033;-74
2023/07/03 00:15:15;;;;;;;7.55;2.55;;;;;;;;;;5027785;28;20025;-74
2023/07/03 00:17:45;;;;;;;7.63;2.80;;;;;;;;;;5034303;28;20059;-74
2023/07/03 00:20:14;;;;;;;6.35;2.88;;;;;;;;;;5019508;28;20041;-74
2023/07/03 00:22:40;;;;;;;8.50;2.40;;;;;;;;;;5027030;28;20026;-73
2023/07/03 00:25:25;;;;;;;7.78;2.75;;;;;;;;;;5027845;28;20033;-74
2023/07/03 00:27:53;;;;;;;7.47;3.10;;;;;;;;;;5031574;28;20041;-74
2023/07/03 00:30:20;;;;;;;10.45;2.88;;;;;;;;;;5031411;28;20025;-73
2023/07/03 00:32:46;;;;;;;9.35;2.72;;;;;;;;;;5034620;28;20390;-74
2023/07/03 00:35:12;;;;;;;9.07;3.45;;;;;;;;;;5033869;28;20617;-73
2023/07/03 00:37:38;;;;;;;7.97;2.63;;;;;;;;;;5051168;28;20037;-74
2023/07/03 00:40:06;;;;;;;6.95;2.60;;;;;;;;;;5037560;28;20040;-74
2023/07/03 00:42:33;;;;;;;6.57;3.05;;;;;;;;;;5037819;28;20017;-74
2023/07/03 00:44:59;;;;;;;4.10;2.60;;;;;;;;;;5041931;28;20517;-74
2023/07/03 00:47:25;;;;;;;5.57;2.80;;;;;;;;;;5031673;28;20459;-73
2023/07/03 00:49:51;;;;;;;9.18;3.28;;;;;;;;;;5021107;28;20690;-74
2023/07/03 00:52:17;;;;;;;7.53;2.80;;;;;;;;;;5027330;28;20076;-74
2023/07/03 00:54:43;;;;;;;7.03;2.70;;;;;;;;;;5021502;28;20029;-73
2023/07/03 00:57:14;;;;;;;3.72;2.60;;;;;;;;;;5025927;28;20531;-74
2023/07/03 00:59:40;;;;;;;6.05;2.92;;;;;;;;;;5025195;28;20225;-74
2023/07/03 01:02:14;;;;;;;9.90;3.58;;;;;;;;;;5029476;28;20036;-73
2023/07/03 01:04:54;;;;;;;7.67;3.37;;;;;;;;;;5020045;28;20048;-74
2023/07/03 01:07:23;;;;;;;7.78;2.72;;;;;;;;;;5020522;28;20719;-73
2023/07/03 01:09:53;;;;;;;8.35;2.60;;;;;;;;;;5021428;28;20029;-74
2023/07/03 01:12:21;;;;;;;8.80;2.80;;;;;;;;;;5023371;28;20038;-74
2023/07/03 01:14:47;;;;;;;6.05;2.38;;;;;;;;;;5027389;28;20071;-74
2023/07/03 01:17:14;;;;;;;6.97;2.80;;;;;;;;;;5032432;28;20380;-74
2023/07/03 01:19:41;;;;;;;11.32;2.90;;;;;;;;;;5026591;28;20372;-74
2023/07/03 01:22:25;;;;;;;6.38;2.60;;;;;;;;;;5021708;28;20021;-74
2023/07/03 01:24:54;;;;;;;9.15;2.70;;;;;;;;;;5024570;28;20045;-74
2023/07/03 01:27:22;;;;;;;9.90;2.72;;;;;;;;;;5029206;28;20036;-73
2023/07/03 01:29:50;;;;;;;6.22;2.85;;;;;;;;;;5041821;28;20388;-73
2023/07/03 01:32:19;;;;;;;11.65;3.90;;;;;;;;;;5020897;28;20041;-73
2023/07/03 01:34:46;;;;;;;11.70;3.00;;;;;;;;;;5022920;28;20128;-74
2023/07/03 01:37:16;;;;;;;7.65;2.42;;;;;;;;;;5026180;28;20035;-73
2023/07/03 01:39:43;;;;;;;5.40;2.90;;;;;;;;;;5028481;28;20433;-73
2023/07/03 01:42:13;;;;;;;9.25;2.92;;;;;;;;;;5027509;28;20117;-73
2023/07/03 01:44:39;;;;;;;9.85;3.35;;;;;;;;;;5026897;28;20084;-74
2023/07/03 01:47:09;;;;;;;7.95;2.83;;;;;;;;;;5025158;28;20160;-74
2023/07/03 01:49:35;;;;;;;5.45;2.58;;;;;;;;;;5021854;28;20053;-73
2023/07/03 01:52:19;;;;;;;6.88;2.60;;;;;;;;;;5029823;28;20033;-74
2023/07/03 01:54:45;;;;;;;8.23;2.60;;;;;;;;;;5032844;28;20033;-74
2023/07/03 01:57:14;;;;;;;4.13;2.70;;;;;;;;;;5027122;28;20395;-75
2023/07/03 01:59:41;;;;;;;12.85;3.13;;;;;;;;;;5030139;28;20021;-73
2023/07/03 02:02:10;;;;;;;7.63;2.40;;;;;;;;;;5033043;28;20111;-75
2023/07/03 02:04:39;;;;;;;8.25;2.97;;;;;;;;;;5033617;28;20091;-74
2023/07/03 02:07:06;;;;;;;7.57;2.75;;;;;;;;;;5028774;28;20029;-74
2023/07/03 02:09:33;;;;;;;6.90;2.63;;;;;;;;;;5030570;28;20037;-74
2023/07/03 02:11:59;;;;;;;6.25;2.83;;;;;;;;;;5029280;28;20545;-74
2023/07/03 02:14:25;;;;;;;10.40;3.30;;;;;;;;;;5024880;28;20123;-74
2023/07/03 02:16:52;;;;;;;5.82;3.10;;;;;;;;;;5023021;28;20034;-73
2023/07/03 02:19:19;;;;;;;7.75;3.47;;;;;;;;;;5040707;28;20033;-74
2023/07/03 02:21:45;;;;;;;6.85;3.10;;;;;;;;;;5029029;28;20031;-74
2023/07/03 02:24:12;;;;;;;7.13;2.47;;;;;;;;;;5030045;28;20128;-73
2023/07/03 02:26:38;;;;;;;8.50;2.60;;;;;;;;;;5021247;28;20033;-75
2023/07/03 02:29:05;;;;;;;6.75;2.60;;;;;;;;;;5027516;28;20443;-73
2023/07/03 02:31:31;;;;;;;9.50;2.88;;;;;;;;;;5020844;28;20041;-74
2023/07/03 02:33:57;;;;;;;11.23;2.75;;;;;;;;;;5019348;28;20053;-74
2023/07/03 02:36:29;;;;;;;10.90;3.13;;;;;;;;;;5021940;28;20029;-74
2023/07/03 02:38:55;;;;;;;13.88;2.90;;;;;;;;;;5029583;28;20533;-74
2023/07/03 02:41:22;;;;;;;6.72;2.40;;;;;;;;;;5042228;28;20061;-74
2023/07/03 02:43:49;;;;;;;8.85;2.72;;;;;;;;;;5028647;28;20087;-72
2023/07/03 02:46:15;;;;;;;9.00;3.53;;;;;;;;;;5024606;28;20515;-73
2023/07/03 02:48:41;;;;;;;5.82;2.85;;;;;;;;;;5035272;28;20104;-74
2023/07/03 02:51:07;;;;;;;6.85;2.85;;;;;;;;;;5030789;28;20060;-74
2023/07/03 02:53:33;;;;;;;10.60;3.20;;;;;;;;;;5023234;28;20065;-74
2023/07/03 02:56:00;;;;;;;7.30;2.42;;;;;;;;;;5022661;28;20079;-74
2023/07/03 02:58:26;;;;;;;6.30;2.60;;;;;;;;;;5038587;28;20033;-74
2023/07/03 03:00:53;;;;;;;6.05;2.22;;;;;;;;;;5019181;28;20442;-75
2023/07/03 03:03:19;;;;;;;8.23;3.50;;;;;;;;;;5020008;28;20110;-73
2023/07/03 03:05:46;;;;;;;6.80;3.60;;;;;;;;;;5025376;28;20053;-74
2023/07/03 03:08:12;;;;;;;10.73;2.85;;;;;;;;;;5032814;28;20153;-74
2023/07/03 03:10:38;;;;;;;6.80;2.78;;;;;;;;;;5026713;28;20116;-74
2023/07/03 03:13:04;;;;;;;4.63;2.40;;;;;;;;;;5041838;28;20036;-74
2023/07/03 03:15:35;;;;;;;7.30;2.97;;;;;;;;;;5038930;28;20030;-75
2023/07/03 03:18:02;;;;;;;5.63;2.38;;;;;;;;;;5036636;28;20109;-73
2023/07/03 03:20:28;;;;;;;12.40;3.22;;;;;;;;;;5032390;28;20159;-74
2023/07/03 03:22:54;;;;;;;8.18;3.22;;;;;;;;;;5034856;28;20150;-74
2023/07/03 03:25:20;;;;;;;8.90;2.80;;;;;;;;;;5030778;28;20093;-74
2023/07/03 03:27:46;;;;;;;4.93;2.80;;;;;;;;;;5026377;28;20577;-72
2023/07/03 03:30:12;;;;;;;7.13;2.58;;;;;;;;;;5036433;28;20057;-73
2023/07/03 03:32:39;;;;;;;11.80;3.22;;;;;;;;;;5026868;28;20064;-73
2023/07/03 03:35:06;;;;;;;7.45;2.90;;;;;;;;;;5029406;28;20148;-74
2023/07/03 03:37:32;;;;;;;8.63;2.95;;;;;;;;;;5023833;28;20099;-74
2023/07/03 03:39:58;;;;;;;10.20;2.67;;;;;;;;;;5034853;28;20088;-74
2023/07/03 03:42:24;;;;;;;6.80;2.67;;;;;;;;;;5027676;28;20068;-74
2023/07/03 03:44:50;;;;;;;4.65;2.40;;;;;;;;;;5029570;28;20104;-74
2023/07/03 03:47:19;;;;;;;5.88;2.80;;;;;;;;;;5030600;28;20475;-74
2023/07/03 03:49:45;;;;;;;9.70;2.88;;;;;;;;;;5048091;28;20160;-73
2023/07/03 03:52:12;;;;;;;11.18;2.50;;;;;;;;;;5026959;28;20057;-74
2023/07/03 03:54:38;;;;;;;10.93;3.38;;;;;;;;;;5033704;28;20391;-73
2023/07/03 03:57:05;;;;;;;8.02;3.28;;;;;;;;;;5027114;28;20029;-73
2023/07/03 03:59:31;;;;;;;5.68;2.72;;;;;;;;;;5028217;28;20056;-73
2023/07/03 04:01:57;;;;;;;11.55;2.85;;;;;;;;;;5024763;28;20021;-74
2023/07/03 04:04:23;;;;;;;4.90;2.42;;;;;;;;;;5025864;28;20054;-74
2023/07/03 04:06:52;;;;;;;8.65;2.88;;;;;;;;;;5026307;28;20036;-74
2023/07/03 04:09:18;;;;;;;4.82;3.15;;;;;;;;;;5037167;28;20117;-72
2023/07/03 04:11:45;;;;;;;6.22;2.47;;;;;;;;;;5025718;28;20451;-72
2023/07/03 04:14:12;;;;;;;5.57;2.65;;;;;;;;;;5024972;28;20033;-73
2023/07/03 04:16:38;;;;;;;6.60;2.42;;;;;;;;;;5025920;28;20033;-73
2023/07/03 04:19:05;;;;;;;9.40;2.80;;;;;;;;;;5030080;28;20021;-74
2023/07/03 04:21:31;;;;;;;6.18;2.80;;;;;;;;;;5025524;28;20045;-74
2023/07/03 04:23:57;;;;;;;7.22;3.40;;;;;;;;;;5024930;28;20025;-74
2023/07/03 04:26:24;;;;;;;8.50;2.70;;;;;;;;;;5027402;28;20032;-74
2023/07/03 04:28:50;;;;;;;7.53;2.70;;;;;;;;;;5024759;28;20029;-74
2023/07/03 04:31:16;;;;;;;9.68;2.97;;;;;;;;;;5027125;28;20036;-74
2023/07/03 04:33:45;;;;;;;5.57;2.45;;;;;;;;;;5026720;28;20487;-74
2023/07/03 04:36:11;;;;;;;5.13;2.50;;;;;;;;;;5028410;28;20379;-73
2023/07/03 04:38:39;;;;;;;6.32;2.47;;;;;;;;;;5026176;28;20488;-73
2023/07/03 04:41:05;;;;;;;8.15;2.40;;;;;;;;;;5023318;28;20162;-74
2023/07/03 04:43:31;;;;;;;4.47;2.80;;;;;;;;;;5028251;28;20093;-73
2023/07/03 04:46:03;;;;;;;9.90;3.15;;;;;;;;;;5015812;28;20046;-74
2023/07/03 04:48:30;;;;;;;10.35;2.97;;;;;;;;;;5023900;28;20030;-74
2023/07/03 04:50:58;;;;;;;8.60;2.78;;;;;;;;;;5037299;28;20018;-75
2023/07/03 04:53:25;;;;;;;5.00;2.40;;;;;;;;;;5021762;28;20029;-73
2023/07/03 04:55:51;;;;;;;12.13;4.03;;;;;;;;;;5030314;28;20029;-74
2023/07/03 04:58:18;;;;;;;7.70;2.55;;;;;;;;;;5027500;28;20052;-74
2023/07/03 05:00:46;;;;;;;8.05;2.97;;;;;;;;;;5026201;28;20033;-73
2023/07/03 05:03:13;;;;;;;8.25;3.28;;;;;;;;;;5026860;28;20042;-75
2023/07/03 05:05:39;;;;;;;9.25;3.15;;;;;;;;;;5027781;28;20028;-76
2023/07/03 05:08:06;;;;;;;6.18;2.83;;;;;;;;;;5022416;28;20575;-75
2023/07/03 05:10:32;;;;;;;8.23;3.05;;;;;;;;;;5025977;28;20112;-74
2023/07/03 05:12:58;;;;;;;8.43;2.70;;;;;;;;;;5026116;28;20044;-74
2023/07/03 05:15:25;;;;;;;5.60;3.17;;;;;;;;;;5025071;28;20049;-74
2023/07/03 05:17:52;;;;;;;6.18;2.50;;;;;;;;;;5027702;28;20036;-74
2023/07/03 05:20:29;;;;;;;7.22;3.30;;;;;;;;;;5026486;28;20034;-73
2023/07/03 05:22:55;;;;;;;8.88;3.03;;;;;;;;;;5030089;28;20086;-74
2023/07/03 05:25:22;;;;;;;8.02;2.85;;;;;;;;;;5048656;28;20056;-74
2023/07/03 05:27:48;;;;;;;6.07;2.97;;;;;;;;;;5032248;28;20079;-74
2023/07/03 05:30:15;;;;;;;7.28;2.50;;;;;;;;;;5030620;28;20053;-75
2023/07/03 05:32:41;;;;;;;7.28;2.80;;;;;;;;;;5022076;28;20068;-74
2023/07/03 05:35:08;;;;;;;6.28;2.83;;;;;;;;;;5027214;28;20080;-74
2023/07/03 05:37:36;;;;;;;6.50;2.78;;;;;;;;;;5026146;28;20476;-73
2023/07/03 05:40:05;;;;;;;7.22;2.60;;;;;;;;;;5031114;28;20037;-74
2023/07/03 05:42:31;;;;;;;5.28;2.70;;;;;;;;;;5023470;28;20037;-74
2023/07/03 05:44:57;;;;;;;4.35;2.55;;;;;;;;;;5035192;28;20384;-73
2023/07/03 05:47:25;;;;;;;5.93;2.97;;;;;;;;;;5032488;28;20052;-73
2023/07/03 05:49:52;;;;;;;3.65;2.40;;;;;;;;;;5042713;28;20026;-73
2023/07/03 05:52:18;;;;;;;6.03;2.72;;;;;;;;;;5040308;28;20053;-73
2023/07/03 05:54:45;;;;;;;3.10;2.20;;;;;;;;;;5027056;28;20116;-72
2023/07/03 05:57:12;;;;;;;6.63;2.30;;;;;;;;;;5027754;28;20026;-72
2023/07/03 05:59:39;;;;;;;5.53;2.47;;;;;;;;;;5028552;28;20030;-74
2023/07/03 06:02:07;;;;;;;5.78;2.38;;;;;;;;;;5026218;28;20022;-72
2023/07/03 06:04:33;;;;;;;4.45;2.05;;;;;;;;;;5034877;28;20110;-73
2023/07/03 06:07:00;;;;;;;4.90;2.08;;;;;;;;;;5030077;28;20068;-74
2023/07/03 06:09:28;;;;;;;4.40;2.30;;;;;;;;;;5032073;28;20037;-74
2023/07/03 06:11:55;;;;;;;6.97;2.05;;;;;;;;;;5033861;28;20036;-74
2023/07/03 06:14:21;;;;;;;7.03;2.90;;;;;;;;;;5026913;28;20562;-74
2023/07/03 06:16:49;;;;;;;5.28;2.30;;;;;;;;;;5024642;28;20033;-73
2023/07/03 06:19:16;;;;;;;6.35;2.28;;;;;;;;;;5026126;28;20083;-74
2023/07/03 06:21:42;;;;;;;4.55;2.40;;;;;;;;;;5020394;28;20828;-74
2023/07/03 06:24:09;;;;;;;7.30;2.42;;;;;;;;;;5029901;28;20104;-73
2023/07/03 06:26:38;;;;;;;3.63;2.05;;;;;;;;;;5032766;28;20049;-74
2023/07/03 06:29:05;;;;;;;4.05;2.42;;;;;;;;;;5042104;28;20006;-73
2023/07/03 06:31:31;;;;;;;4.45;2.35;;;;;;;;;;5040153;28;20040;-73
2023/07/03 06:33:57;;;;;;;3.75;2.33;;;;;;;;;;5040197;28;20025;-73
2023/07/03 06:36:24;;;;;;;7.63;2.05;;;;;;;;;;5033538;28;20030;-72
2023/07/03 06:38:53;;;;;;;5.32;2.80;;;;;;;;;;5035527;28;20092;-74
2023/07/03 06:41:23;;;;;;;4.30;2.95;;;;;;;;;;5037940;28;20026;-75
2023/07/03 06:43:51;;;;;;;5.53;2.28;;;;;;;;;;5031998;28;20053;-73
2023/07/03 06:46:17;;;;;;;4.88;2.60;;;;;;;;;;5034405;28;20104;-74
2023/07/03 06:48:44;;;;;;;3.10;1.85;;;;;;;;;;5027242;28;20025;-73
2023/07/03 06:51:12;;;;;;;4.28;2.30;;;;;;;;;;5027369;28;20038;-74
2023/07/03 06:53:38;;;;;;;4.47;1.90;;;;;;;;;;5031956;28;20025;-75
2023/07/03 06:56:05;;;;;;;4.75;2.20;;;;;;;;;;5034288;28;20057;-75
2023/07/03 06:58:31;;;;;;;6.75;2.15;;;;;;;;;;5026877;28;20061;-74
2023/07/03 07:00:57;;;;;;;3.13;1.88;;;;;;;;;;5029800;28;20045;-74
2023/07/03 07:03:24;;;;;;;2.58;1.75;;;;;;;;;;5024543;28;20053;-74
2023/07/03 07:05:54;;;;;;;3.83;1.98;;;;;;;;;;5029411;28;20025;-74
2023/07/03 07:08:21;;;;;;;5.30;2.05;;;;;;;;;;5030726;28;20025;-74
2023/07/03 07:10:47;;;;;;;5.25;1.95;;;;;;;;;;5024061;28;20086;-73
2023/07/03 07:13:14;;;;;;;3.22;1.92;;;;;;;;;;5029492;28;20081;-74
2023/07/03 07:15:40;;;;;;;2.97;1.88;;;;;;;;;;5023216;28;20387;-73
2023/07/03 07:18:08;;;;;;;4.90;2.63;;;;;;;;;;5021402;28;20116;-73
2023/07/03 07:20:37;;;;;;;4.78;2.30;;;;;;;;;;5029191;28;20590;-75
2023/07/03 07:23:04;;;;;;;4.85;2.38;;;;;;;;;;5027388;28;20083;-74
2023/07/03 07:25:30;;;;;;;4.25;2.05;;;;;;;;;;5028077;28;20044;-74
2023/07/03 07:27:56;;;;;;;5.22;2.30;;;;;;;;;;5027280;28;20029;-74
2023/07/03 07:30:23;;;;;;;6.53;2.42;;;;;;;;;;5027953;28;20106;-75
2023/07/03 07:32:52;;;;;;;4.03;2.10;;;;;;;;;;5027736;28;20268;-74
2023/07/03 07:35:19;;;;;;;5.13;2.10;;;;;;;;;;5028842;28;20041;-74
2023/07/03 07:37:45;;;;;;;5.88;2.47;;;;;;;;;;5026551;28;20033;-74
2023/07/03 07:40:11;;;;;;;3.03;2.40;;;;;;;;;;5021769;28;20578;-74
2023/07/03 07:42:38;;;;;;;3.80;2.17;;;;;;;;;;5031365;28;20026;-74
2023/07/03 07:45:06;;;;;;;4.55;2.72;;;;;;;;;;5030755;28;20032;-74
2023/07/03 07:47:32;;;;;;;4.57;2.10;;;;;;;;;;5025245;28;20487;-74
2023/07/03 07:49:58;;;;;;;6.78;2.97;;;;;;;;;;5022322;28;20026;-74
2023/07/03 07:52:25;;;;;;;4.05;2.30;;;;;;;;;;5031234;28;20029;-74
2023/07/03 07:54:56;;;;;;;6.55;2.47;;;;;;;;;;5031450;28;20127;-73
2023/07/03 07:57:23;;;;;;;4.10;2.35;;;;;;;;;;5021674;28;20045;-74
2023/07/03 07:59:49;;;;;;;4.85;1.98;;;;;;;;;;5021067;28;20326;-74
2023/07/03 08:02:15;;;;;;;6.18;2.92;;;;;;;;;;5017743;28;20029;-73
2023/07/03 08:04:41;;;;;;;5.88;2.55;;;;;;;;;;5020702;28;20068;-74
2023/07/03 08:07:07;;;;;;;4.22;2.55;;;;;;;;;;5022745;28;20090;-74
2023/07/03 08:09:34;;;;;;;7.80;2.67;;;;;;;;;;5028370;28;20033;-74
2023/07/03 08:12:03;;;;;;;6.28;2.63;;;;;;;;;;5025595;28;20497;-73
2023/07/03 08:14:29;;;;;;;7.65;3.60;;;;;;;;;;5025890;28;20120;-74
2023/07/03 08:16:56;;;;;;;3.50;2.08;;;;;;;;;;5024419;28;20037;-74
2023/07/03 08:19:22;;;;;;;3.00;2.05;;;;;;;;;;5033347;28;20183;-74
2023/07/03 08:21:48;;;;;;;8.05;2.50;;;;;;;;;;5027123;28;20108;-72
2023/07/03 08:24:14;;;;;;;3.80;2.33;;;;;;;;;;5027961;28;20139;-73
2023/07/03 08:26:41;;;;;;;4.40;2.05;;;;;;;;;;5025311;28;20022;-73
2023/07/03 08:29:08;;;;;;;2.72;1.70;;;;;;;;;;5028502;28;20438;-74
2023/07/03 08:31:34;;;;;;;4.10;2.10;;;;;;;;;;5023593;28;20052;-74
2023/07/03 08:34:00;;;;;;;3.95;2.13;;;;;;;;;;5044025;28;20028;-74
2023/07/03 08:36:26;;;;;;;5.15;2.03;;;;;;;;;;5023478;28;20037;-74
2023/07/03 08:38:52;;;;;;;2.92;1.85;;;;;;;;;;5021534;28;20060;-72
2023/07/03 08:41:19;;;;;;;4.45;2.00;;;;;;;;;;5029311;28;20124;-73
2023/07/03 08:43:51;;;;;;;2.65;1.90;;;;;;;;;;5033894;28;20061;-73
2023/07/03 08:46:21;;;;;;;3.63;1.92;;;;;;;;;;5025436;28;20104;-74
2023/07/03 08:48:49;;;;;;;4.63;2.00;;;;;;;;;;5028859;28;20029;-73
2023/07/03 08:51:18;;;;;;;2.97;1.70;;;;;;;;;;5020662;28;20029;-74
2023/07/03 08:53:45;;;;;;;6.70;2.00;;;;;;;;;;5029017;28;20107;-74
2023/07/03 08:56:22;;;;;;;4.18;2.22;;;;;;;;;;5027320;28;20033;-73
2023/07/03 08:58:52;;;;;;;4.72;1.63;;;;;;;;;;5025922;28;20171;-74
2023/07/03 09:01:18;;;;;;;4.22;2.67;;;;;;;;;;5032944;28;20500;-73
2023/07/03 09:04:04;;;;;;;3.92;2.00;;;;;;;;;;5027471;28;20157;-73
2023/07/03 09:06:36;;;;;;;4.75;2.45;;;;;;;;;;5029166;28;20028;-75
2023/07/03 09:09:08;;;;;;;4.60;2.63;;;;;;;;;;5028003;28;20045;-74
2023/07/03 09:11:36;;;;;;;4.90;2.40;;;;;;;;;;5029007;28;20060;-74
2023/07/03 09:14:03;;;;;;;3.92;2.53;;;;;;;;;;5027976;28;20029;-74
2023/07/03 09:16:29;;;;;;;4.25;2.45;;;;;;;;;;5027990;28;20037;-74
2023/07/03 09:19:05;;;;;;;6.30;2.90;;;;;;;;;;5028611;28;20029;-75
2023/07/03 09:21:33;;;;;;;4.40;3.08;;;;;;;;;;5034263;28;20033;-73
2023/07/03 09:24:17;;;;;;;4.65;2.33;;;;;;;;;;5025837;28;20483;-73
2023/07/03 09:27:02;;;;;;;3.80;2.17;;;;;;;;;;5028973;28;20033;-74
2023/07/03 09:29:30;;;;;;;4.25;1.90;;;;;;;;;;5028388;28;20037;-74
2023/07/03 09:31:56;;;;;;;2.85;2.35;;;;;;;;;;5031720;28;20037;-73
2023/07/03 09:34:22;;;;;;;2.95;2.28;;;;;;;;;;5032651;28;20030;-74
2023/07/03 09:36:58;;;;;;;3.15;1.83;;;;;;;;;;5046743;28;20037;-75
2023/07/03 09:39:25;;;;;;;3.45;2.15;;;;;;;;;;5042577;28;20021;-75
2023/07/03 09:41:53;;;;;;;2.47;1.90;;;;;;;;;;5038054;28;20276;-75
2023/07/03 09:44:22;;;;;;;2.25;1.95;;;;;;;;;;5035420;28;20033;-74
2023/07/03 09:46:48;;;;;;;2.28;1.90;;;;;;;;;;5035184;28;20032;-73
2023/07/03 09:49:24;;;;;;;2.58;1.98;;;;;;;;;;5036388;28;20025;-75
2023/07/03 09:51:51;;;;;;;5.75;2.58;;;;;;;;;;5036022;28;20033;-75
2023/07/03 09:54:22;;;;;;;5.53;2.20;;;;;;;;;;5031941;28;20025;-75
2023/07/03 09:56:49;;;;;;;4.13;1.80;;;;;;;;;;5026354;28;20036;-74
2023/07/03 09:59:19;;;;;;;2.67;1.90;;;;;;;;;;5030587;28;20026;-75
2023/07/03 10:01:45;;;;;;;7.10;2.10;;;;;;;;;;5030011;28;20026;-75
2023/07/03 10:04:13;;;;;;;2.88;1.80;;;;;;;;;;5024838;28;20041;-75
2023/07/03 10:06:40;;;;;;;4.13;2.05;;;;;;;;;;5030985;28;20029;-74
2023/07/03 10:09:24;;;;;;;2.38;2.05;;;;;;;;;;5031291;28;20033;-74
2023/07/03 10:12:01;;;;;;;3.00;2.10;;;;;;;;;;5031077;28;20160;-74
2023/07/03 10:14:30;;;;;;;5.22;2.65;;;;;;;;;;5029918;28;20083;-75
2023/07/03 10:16:56;;;;;;;3.33;2.03;;;;;;;;;;5026224;28;20041;-74
2023/07/03 10:19:22;;;;;;;3.65;2.00;;;;;;;;;;5020659;28;20112;-75
2023/07/03 10:21:49;;;;;;;2.92;1.90;;;;;;;;;;5031530;28;20028;-75
2023/07/03 10:24:16;;;;;;;3.55;1.88;;;;;;;;;;5028537;28;21462;-75
2023/07/03 10:26:47;;;;;;;3.38;1.85;;;;;;;;;;5029459;28;20032;-75
2023/07/03 10:29:23;;;;;;;3.50;2.17;;;;;;;;;;5026665;28;20064;-75
2023/07/03 10:31:58;;;;;;;3.15;2.13;;;;;;;;;;5029444;28;20511;-74
2023/07/03 10:34:37;;;;;;;2.72;1.95;;;;;;;;;;5035191;28;20112;-76
2023/07/03 10:37:05;;;;;;;6.93;2.13;;;;;;;;;;5026126;28;20064;-75
2023/07/03 10:39:48;;;;;;;3.85;1.92;;;;;;;;;;5033122;28;20112;-75
2023/07/03 10:42:44;;;;;;;3.92;1.90;;;;;;;;;;5025805;28;20037;-74
2023/07/03 10:45:11;;;;;;;4.35;2.40;;;;;;;;;;5023853;28;20041;-75
2023/07/03 10:47:37;;;;;;;4.70;2.40;;;;;;;;;;5028724;28;20029;-74
2023/07/03 10:50:04;;;;;;;3.80;2.10;;;;;;;;;;5022899;28;20515;-75
2023/07/03 10:52:35;;;;;;;5.68;2.00;;;;;;;;;;5027048;28;20029;-75
2023/07/03 10:55:13;;;;;;;4.28;2.08;;;;;;;;;;5024933;28;20028;-75
2023/07/03 10:57:45;;;;;;;2.60;1.90;;;;;;;;;;5026486;28;20025;-75
2023/07/03 11:00:18;;;;;;;2.53;2.33;;;;;;;;;;5026824;28;20030;-75
2023/07/03 11:02:51;;;;;;;2.50;1.80;;;;;;;;;;5024929;28;20046;-75
2023/07/03 11:05:18;;;;;;;2.83;1.70;;;;;;;;;;5028991;28;20156;-75
2023/07/03 11:07:50;;;;;;;2.10;1.90;;;;;;;;;;5026446;28;20101;-77
2023/07/03 11:10:23;;;;;;;3.63;1.98;;;;;;;;;;5026696;28;20030;-74
2023/07/03 11:13:18;;;;;;;3.00;1.95;;;;;;;;;;5025421;28;20025;-75
2023/07/03 11:15:49;;;;;;;3.38;1.85;;;;;;;;;;5020694;28;20065;-75
2023/07/03 11:18:18;;;;;;;4.63;2.20;;;;;;;;;;5027501;28;20100;-75
2023/07/03 11:20:54;;;;;;;2.42;1.85;;;;;;;;;;5024271;28;20034;-76
2023/07/03 11:23:30;;;;;;;2.10;1.90;;;;;;;;;;5027253;28;20043;-76
2023/07/03 11:26:15;;;;;;;2.10;1.85;;;;;;;;;;5027222;28;20021;-76
2023/07/03 11:28:48;;;;;;;1.92;1.50;;;;;;;;;;5024806;28;20040;-77
2023/07/03 11:31:14;;;;;;;2.17;1.60;;;;;;;;;;5032111;28;20030;-76
2023/07/03 11:33:41;;;;;;;2.58;1.80;;;;;;;;;;5022533;28;20135;-76
2023/07/03 11:36:08;;;;;;;4.10;1.70;;;;;;;;;;5016897;28;20025;-76
2023/07/03 11:38:35;;;;;;;3.03;1.70;;;;;;;;;;5025440;28;20091;-76
2023/07/03 11:41:03;;;;;;;1.60;1.50;;;;;;;;;;5029350;28;20035;-74
2023/07/03 11:43:33;;;;;;;1.90;1.80;;;;;;;;;;5021303;28;20625;-74
2023/07/03 11:45:59;;;;;;;2.22;2.00;;;;;;;;;;5019684;28;20029;-74
2023/07/03 11:48:42;;;;;;;1.60;1.50;;;;;;;;;;5025107;28;20487;-75
2023/07/03 11:51:10;;;;;;;3.95;1.50;;;;;;;;;;5028014;28;20033;-74
2023/07/03 11:53:46;;;;;;;2.20;1.60;;;;;;;;;;5018981;28;20033;-74
2023/07/03 11:56:35;;;;;;;5.88;2.30;;;;;;;;;;5021239;28;20064;-73
2023/07/03 11:59:10;;;;;;;5.75;2.40;;;;;;;;;;5025708;28;20067;-74
2023/07/03 12:01:37;;;;;;;7.32;2.47;;;;;;;;;;5021027;28;20029;-73
2023/07/03 12:04:05;;;;;;;3.20;1.88;;;;;;;;;;5025504;28;20053;-73
2023/07/03 12:06:40;;;;;;;2.92;1.40;;;;;;;;;;5020836;28;20041;-73
2023/07/03 12:09:30;;;;;;;1.90;1.40;;;;;;;;;;5027332;28;20025;-73
2023/07/03 12:11:59;;;;;;;4.35;1.75;;;;;;;;;;5010105;28;20230;-73
2023/07/03 12:14:52;;;;;;;2.95;1.70;;;;;;;;;;5024892;28;20200;-73
2023/07/03 12:17:19;;;;;;;2.80;1.73;;;;;;;;;;5027114;28;20030;-74
2023/07/03 12:19:46;;;;;;;2.85;1.90;;;;;;;;;;5024358;28;20037;-75
2023/07/03 12:22:13;;;;;;;3.53;1.80;;;;;;;;;;5026990;28;20083;-74
2023/07/03 12:24:39;;;;;;;2.05;1.52;;;;;;;;;;5029078;28;20031;-74
2023/07/03 12:27:06;;;;;;;2.08;1.70;;;;;;;;;;5020586;28;20048;-74
2023/07/03 12:29:45;;;;;;;1.70;1.60;;;;;;;;;;5026998;28;20042;-74
2023/07/03 12:32:11;;;;;;;1.70;1.60;;;;;;;;;;5026808;28;20037;-74
2023/07/03 12:34:39;;;;;;;1.70;1.50;;;;;;;;;;5027711;28;20060;-74
2023/07/03 12:37:11;;;;;;;1.60;1.50;;;;;;;;;;5034927;28;20064;-74
2023/07/03 12:39:37;;;;;;;1.70;1.60;;;;;;;;;;5035589;28;20020;-74
2023/07/03 12:42:07;;;;;;;1.70;1.60;;;;;;;;;;5028566;28;20041;-75
2023/07/03 12:44:34;;;;;;;3.05;1.70;;;;;;;;;;5026576;28;20071;-75
2023/07/03 12:47:16;;;;;;;1.70;1.60;;;;;;;;;;5038090;28;20076;-75
2023/07/03 12:49:59;;;;;;;2.90;1.80;;;;;;;;;;5061310;28;20034;-74
2023/07/03 12:52:30;;;;;;;1.70;1.60;;;;;;;;;;5033199;28;21427;-75
2023/07/03 12:54:56;;;;;;;1.70;1.60;;;;;;;;;;5032718;28;20037;-75
2023/07/03 12:57:23;;;;;;;2.65;2.13;;;;;;;;;;5033008;28;20036;-75
2023/07/03 12:59:51;;;;;;;3.10;1.65;;;;;;;;;;5029684;28;20429;-74
2023/07/03 13:02:22;;;;;;;2.25;1.70;;;;;;;;;;5026150;28;20041;-75
2023/07/03 13:05:02;;;;;;;1.77;1.67;;;;;;;;;;5026514;28;20075;-74
2023/07/03 13:07:29;;;;;;;1.98;1.50;;;;;;;;;;5028056;28;20443;-74
2023/07/03 13:09:56;;;;;;;2.28;1.60;;;;;;;;;;5031333;28;20021;-75
2023/07/03 13:12:24;;;;;;;1.60;1.50;;;;;;;;;;5028555;28;20025;-75
2023/07/03 13:15:01;;;;;;;1.65;1.55;;;;;;;;;;5027653;28;20624;-75
2023/07/03 13:17:28;;;;;;;1.85;1.60;;;;;;;;;;5023589;28;20176;-76
2023/07/03 13:19:54;;;;;;;1.67;1.35;;;;;;;;;;5026060;28;20601;-75
2023/07/03 13:22:21;;;;;;;1.42;1.33;;;;;;;;;;5027573;28;20459;-74
2023/07/03 13:24:52;;;;;;;1.90;1.70;;;;;;;;;;5024490;28;20033;-75
2023/07/03 13:27:22;;;;;;;1.38;1.30;;;;;;;;;;5022662;28;20029;-75
2023/07/03 13:29:48;;;;;;;1.90;1.38;;;;;;;;;;5041312;28;20025;-74
2023/07/03 13:32:22;;;;;;;1.98;1.65;;;;;;;;;;5025006;28;20060;-74
2023/07/03 13:34:56;;;;;;;1.88;1.40;;;;;;;;;;5028598;28;20038;-74
2023/07/03 13:37:27;;;;;;;1.45;1.35;;;;;;;;;;5027965;28;20052;-74
2023/07/03 13:39:53;;;;;;;1.98;1.50;;;;;;;;;;5021078;28;20344;-75
2023/07/03 13:42:20;;;;;;;2.85;1.42;;;;;;;;;;5024004;28;20041;-73
2023/07/03 13:44:46;;;;;;;2.13;1.48;;;;;;;;;;5025769;28;20049;-74
2023/07/03 13:47:12;;;;;;;1.60;1.30;;;;;;;;;;5024763;28;20053;-74
2023/07/03 13:49:39;;;;;;;1.30;1.30;;;;;;;;;;5025230;28;20484;-74
2023/07/03 13:52:06;;;;;;;3.30;1.48;;;;;;;;;;5024818;28;20036;-75
2023/07/03 13:54:32;;;;;;;2.33;1.75;;;;;;;;;;5025762;28;20515;-74
2023/07/03 13:56:58;;;;;;;1.77;1.67;;;;;;;;;;5024658;28;20038;-75
2023/07/03 13:59:25;;;;;;;3.47;1.60;;;;;;;;;;5031414;28;20068;-74
2023/07/03 14:01:51;;;;;;;2.10;1.90;;;;;;;;;;5032843;28;20033;-74
2023/07/03 14:04:17;;;;;;;1.83;1.48;;;;;;;;;;5023238;28;20056;-74
2023/07/03 14:06:44;;;;;;;1.88;1.50;;;;;;;;;;5022706;28;20025;-74
2023/07/03 14:09:10;;;;;;;2.25;2.08;;;;;;;;;;5021648;28;20032;-76
2023/07/03 14:11:36;;;;;;;3.30;1.52;;;;;;;;;;5022855;28;20564;-75
2023/07/03 14:14:03;;;;;;;1.55;1.20;;;;;;;;;;5022226;28;20033;-76
2023/07/03 14:16:29;;;;;;;3.97;1.50;;;;;;;;;;5019371;28;20025;-75
2023/07/03 14:18:56;;;;;;;2.80;1.52;;;;;;;;;;5025121;28;20502;-75
2023/07/03 14:21:23;;;;;;;2.17;1.80;;;;;;;;;;5020258;28;20040;-75
2023/07/03 14:23:50;;;;;;;2.17;1.90;;;;;;;;;;5022437;28;20103;-75
2023/07/03 14:26:16;;;;;;;2.75;2.00;;;;;;;;;;5029806;28;20021;-75
2023/07/03 14:28:43;;;;;;;2.53;2.17;;;;;;;;;;5024886;28;20033;-75
2023/07/03 14:31:10;;;;;;;3.45;1.75;;;;;;;;;;5025221;28;20108;-75
2023/07/03 14:33:36;;;;;;;2.20;2.00;;;;;;;;;;5023617;28;20040;-75
2023/07/03 14:36:03;;;;;;;4.90;1.77;;;;;;;;;;5025492;28;21432;-75
2023/07/03 14:38:29;;;;;;;3.67;2.20;;;;;;;;;;5022398;28;20036;-75
2023/07/03 14:40:57;;;;;;;2.72;1.85;;;;;;;;;;5021749;28;20068;-76
2023/07/03 14:43:23;;;;;;;4.18;1.85;;;;;;;;;;5027096;28;20034;-75
2023/07/03 14:45:49;;;;;;;3.33;1.88;;;;;;;;;;5024463;28;20021;-76
2023/07/03 14:48:15;;;;;;;3.90;2.10;;;;;;;;;;5020573;28;20021;-76
2023/07/03 14:50:41;;;;;;;4.70;1.88;;;;;;;;;;5019172;28;20037;-75